Time;durP1;ratioP1;P1;durP2;ratioP2;P2;SDS_P1;SDS_P2;PMS_P1;PMS_P2;Temp;Humidity;BMP_temperature;BMP_pressure;BME280_temperature;BME280_humidity;BME280_pressure;Samples;Min_cycle;Max_cycle;Signal;HPM_P1;HPM_P2
2023/07/28 00:01:08;;;;;;;11.20;9.05;;;17.70;99.90;;;;;;5034241;28;20217;-78
2023/07/28 00:03:36;;;;;;;13.77;9.95;;;17.60;99.90;;;;;;5065571;28;20206;-79
2023/07/28 00:06:03;;;;;;;11.32;9.18;;;17.60;99.90;;;;;;5035397;28;20198;-79
2023/07/28 00:08:31;;;;;;;13.18;9.73;;;17.70;99.90;;;;;;5038034;28;20714;-79
2023/07/28 00:10:58;;;;;;;12.20;10.02;;;17.60;99.90;;;;;;5032524;28;20213;-79
2023/07/28 00:13:29;;;;;;;13.90;10.10;;;17.70;99.90;;;;;;5032330;28;20203;-79
2023/07/28 00:15:56;;;;;;;10.88;9.75;;;17.70;99.90;;;;;;5044828;28;20680;-79
2023/07/28 00:18:25;;;;;;;11.65;9.88;;;17.70;99.90;;;;;;5036437;28;20229;-78
2023/07/28 00:20:52;;;;;;;12.90;10.95;;;17.60;99.90;;;;;;5036307;28;20207;-79
2023/07/28 00:23:20;;;;;;;13.15;11.65;;;17.60;99.90;;;;;;5051381;28;20198;-79
2023/07/28 00:25:47;;;;;;;13.65;11.25;;;17.60;99.90;;;;;;5031909;28;20198;-79
2023/07/28 00:28:15;;;;;;;14.70;11.90;;;17.70;99.90;;;;;;5046272;28;20226;-78
2023/07/28 00:30:42;;;;;;;13.63;12.23;;;17.60;99.90;;;;;;5029626;28;20200;-79
2023/07/28 00:33:09;;;;;;;13.75;12.10;;;17.70;99.90;;;;;;5051810;28;20656;-79
2023/07/28 00:35:42;;;;;;;15.07;11.68;;;17.60;99.90;;;;;;5029788;28;20592;-79
2023/07/28 00:38:10;;;;;;;14.23;12.70;;;17.70;99.90;;;;;;5027875;28;20218;-78
2023/07/28 00:40:37;;;;;;;14.20;11.65;;;17.60;99.90;;;;;;5032386;28;20210;-78
2023/07/28 00:43:05;;;;;;;13.80;12.07;;;17.60;99.90;;;;;;5046210;28;20202;-79
2023/07/28 00:45:34;;;;;;;16.23;13.23;;;17.60;99.90;;;;;;5047419;28;20198;-78
2023/07/28 00:48:02;;;;;;;12.80;11.38;;;17.60;99.90;;;;;;5026524;28;20218;-79
2023/07/28 00:50:33;;;;;;;13.80;12.27;;;17.60;99.90;;;;;;5028730;28;20191;-78
2023/07/28 00:53:03;;;;;;;13.88;12.48;;;17.60;99.90;;;;;;5026164;28;20198;-79
2023/07/28 00:55:30;;;;;;;14.43;12.30;;;17.60;99.90;;;;;;5025156;28;20217;-79
2023/07/28 00:57:58;;;;;;;14.80;12.88;;;17.60;99.90;;;;;;5033633;28;20237;-79
2023/07/28 01:00:25;;;;;;;15.27;12.73;;;17.60;99.90;;;;;;5021801;28;20226;-79
2023/07/28 01:02:53;;;;;;;12.60;11.30;;;17.60;99.90;;;;;;5032305;28;20518;-78
2023/07/28 01:05:22;;;;;;;15.07;11.38;;;17.60;99.90;;;;;;5027031;28;20559;-79
2023/07/28 01:08:00;;;;;;;14.68;11.20;;;17.60;99.90;;;;;;5025200;28;20233;-79
2023/07/28 01:10:32;;;;;;;12.40;10.48;;;17.60;99.90;;;;;;5031991;28;20209;-79
2023/07/28 01:13:00;;;;;;;15.23;10.18;;;17.60;99.90;;;;;;5032539;28;20206;-79
2023/07/28 01:15:27;;;;;;;12.13;9.30;;;17.60;99.90;;;;;;5029695;28;20225;-79
2023/07/28 01:17:55;;;;;;;10.45;8.65;;;17.60;99.90;;;;;;5030244;28;20223;-78
2023/07/28 01:20:27;;;;;;;10.35;8.40;;;17.60;99.90;;;;;;5028685;28;20222;-78
2023/07/28 01:23:08;;;;;;;9.95;8.13;;;17.60;99.90;;;;;;5028975;28;20206;-79
2023/07/28 01:25:54;;;;;;;10.35;7.82;;;17.60;99.90;;;;;;5021683;28;20202;-79
2023/07/28 01:28:23;;;;;;;7.40;6.57;;;17.60;99.90;;;;;;5045602;28;20218;-78
2023/07/28 01:30:51;;;;;;;9.05;6.95;;;17.60;99.90;;;;;;5031667;28;20190;-79
2023/07/28 01:33:19;;;;;;;8.05;6.40;;;17.60;99.90;;;;;;5031633;28;20198;-79
2023/07/28 01:35:46;;;;;;;9.73;6.97;;;17.60;99.90;;;;;;5029796;28;20202;-79
2023/07/28 01:38:13;;;;;;;9.40;6.22;;;17.60;99.90;;;;;;5033033;28;20233;-79
2023/07/28 01:40:41;;;;;;;6.68;5.72;;;17.60;99.90;;;;;;5064507;28;20225;-79
2023/07/28 01:43:08;;;;;;;8.25;6.20;;;17.60;99.90;;;;;;5028930;28;20206;-79
2023/07/28 01:45:37;;;;;;;9.77;7.13;;;17.60;99.90;;;;;;5030351;28;20203;-79
2023/07/28 01:48:05;;;;;;;9.27;6.53;;;17.60;99.90;;;;;;5027455;28;20218;-79
2023/07/28 01:50:32;;;;;;;8.32;6.50;;;17.60;99.90;;;;;;5060256;28;20217;-79
2023/07/28 01:53:00;;;;;;;11.13;7.75;;;17.60;99.90;;;;;;5025928;28;20217;-78
2023/07/28 01:55:28;;;;;;;8.73;6.65;;;17.60;99.90;;;;;;5033637;28;20210;-79
2023/07/28 01:57:57;;;;;;;8.73;7.20;;;17.60;99.90;;;;;;5031766;28;20225;-79
2023/07/28 02:00:25;;;;;;;9.90;6.47;;;17.60;99.90;;;;;;5026821;28;20210;-79
2023/07/28 02:02:55;;;;;;;8.30;5.85;;;17.60;99.90;;;;;;5025997;28;20209;-79
2023/07/28 02:05:22;;;;;;;9.68;7.03;;;17.60;99.90;;;;;;5035032;28;20203;-79
2023/07/28 02:07:50;;;;;;;6.60;5.47;;;17.70;99.90;;;;;;5062088;28;20226;-79
2023/07/28 02:10:17;;;;;;;9.55;6.45;;;17.70;99.90;;;;;;5048983;28;20197;-79
2023/07/28 02:12:45;;;;;;;8.77;6.30;;;17.60;99.90;;;;;;5034676;28;20657;-79
2023/07/28 02:15:13;;;;;;;7.55;6.30;;;17.70;99.90;;;;;;5036351;28;20195;-78
2023/07/28 02:17:40;;;;;;;9.77;6.35;;;17.70;99.90;;;;;;5034777;28;20696;-79
2023/07/28 02:20:12;;;;;;;7.70;6.00;;;17.60;99.90;;;;;;5047569;28;20213;-79
2023/07/28 02:22:40;;;;;;;7.25;6.53;;;17.60;99.90;;;;;;5031570;28;20211;-79
2023/07/28 02:25:08;;;;;;;9.10;6.60;;;17.70;99.90;;;;;;5019829;28;20207;-79
2023/07/28 02:27:47;;;;;;;8.15;6.40;;;17.70;99.90;;;;;;5052716;28;20222;-79
2023/07/28 02:30:14;;;;;;;8.05;6.45;;;17.70;99.90;;;;;;5046431;28;20202;-79
2023/07/28 02:32:42;;;;;;;6.90;6.05;;;17.70;99.90;;;;;;5034883;28;20195;-79
2023/07/28 02:35:11;;;;;;;7.63;5.82;;;17.70;99.90;;;;;;5035725;28;20202;-79
2023/07/28 02:37:38;;;;;;;7.97;6.45;;;17.70;99.90;;;;;;5029375;28;20229;-78
2023/07/28 02:40:06;;;;;;;8.52;6.38;;;17.70;99.90;;;;;;5036046;28;20672;-79
2023/07/28 02:42:35;;;;;;;8.05;5.85;;;17.70;99.90;;;;;;5035036;28;20210;-78
2023/07/28 02:45:03;;;;;;;7.15;6.00;;;17.70;99.90;;;;;;5043082;28;20198;-79
2023/07/28 02:47:30;;;;;;;7.22;5.55;;;17.70;99.90;;;;;;5035101;28;20237;-79
2023/07/28 02:49:58;;;;;;;5.95;5.35;;;17.70;99.90;;;;;;5031277;28;20213;-78
2023/07/28 02:52:27;;;;;;;6.60;5.90;;;17.70;99.90;;;;;;5034897;28;20205;-79
2023/07/28 02:54:56;;;;;;;6.97;5.35;;;17.70;99.90;;;;;;5035884;28;20195;-79
2023/07/28 02:57:23;;;;;;;5.93;5.22;;;17.70;99.90;;;;;;5029194;28;20233;-79
2023/07/28 02:59:51;;;;;;;6.50;5.68;;;17.70;99.90;;;;;;5035145;28;20565;-79
2023/07/28 03:02:20;;;;;;;5.97;5.38;;;17.70;99.90;;;;;;5068314;28;20217;-79
2023/07/28 03:04:50;;;;;;;6.80;5.40;;;17.70;99.90;;;;;;5036505;28;20202;-79
2023/07/28 03:07:18;;;;;;;6.75;6.00;;;17.80;99.90;;;;;;5059975;28;20210;-79
2023/07/28 03:09:51;;;;;;;7.85;5.75;;;17.70;99.90;;;;;;5067584;28;20206;-79
2023/07/28 03:12:19;;;;;;;6.88;5.88;;;17.80;99.90;;;;;;5033146;28;20206;-79
2023/07/28 03:14:46;;;;;;;7.68;5.68;;;17.70;99.90;;;;;;5028036;28;20190;-79
2023/07/28 03:17:14;;;;;;;6.53;5.55;;;17.80;99.90;;;;;;5046574;28;20225;-79
2023/07/28 03:19:41;;;;;;;9.40;6.32;;;17.80;99.90;;;;;;5048445;28;20202;-79
2023/07/28 03:22:08;;;;;;;8.13;6.00;;;17.70;99.90;;;;;;5034585;28;20247;-79
2023/07/28 03:24:36;;;;;;;7.82;6.35;;;17.80;99.90;;;;;;5061697;28;20205;-79
2023/07/28 03:27:05;;;;;;;8.48;6.30;;;17.80;99.90;;;;;;5051575;28;20209;-79
2023/07/28 03:29:33;;;;;;;8.93;7.03;;;17.80;99.90;;;;;;5025444;28;20198;-79
2023/07/28 03:32:01;;;;;;;9.45;7.40;;;17.80;99.90;;;;;;5028044;28;20191;-79
2023/07/28 03:34:31;;;;;;;9.55;7.90;;;17.80;99.90;;;;;;5037827;28;20199;-79
2023/07/28 03:37:01;;;;;;;11.55;8.40;;;17.80;99.90;;;;;;5033810;28;20194;-79
2023/07/28 03:39:29;;;;;;;12.18;8.40;;;17.80;99.90;;;;;;5024509;28;20190;-79
2023/07/28 03:41:56;;;;;;;10.27;8.05;;;17.80;99.90;;;;;;5064874;28;20214;-79
2023/07/28 03:44:26;;;;;;;11.43;8.35;;;17.80;99.90;;;;;;5066321;28;20688;-79
2023/07/28 03:46:53;;;;;;;13.63;8.88;;;17.80;99.90;;;;;;5052119;28;20217;-79
2023/07/28 03:49:20;;;;;;;10.65;8.10;;;17.80;99.90;;;;;;5034050;28;20199;-79
2023/07/28 03:51:48;;;;;;;10.95;8.95;;;17.80;99.90;;;;;;5030820;28;20202;-79
2023/07/28 03:54:15;;;;;;;12.30;9.00;;;17.80;99.90;;;;;;5032397;28;20653;-79
2023/07/28 03:56:43;;;;;;;13.88;8.73;;;17.80;99.90;;;;;;5029160;28;20207;-79
2023/07/28 03:59:10;;;;;;;11.73;8.85;;;17.80;99.90;;;;;;5021103;28;20233;-79
2023/07/28 04:01:39;;;;;;;12.00;8.60;;;17.80;99.90;;;;;;5026989;28;20221;-79
2023/07/28 04:04:08;;;;;;;12.00;9.00;;;17.80;99.90;;;;;;5045968;28;20211;-79
2023/07/28 04:06:43;;;;;;;11.68;8.32;;;17.80;99.90;;;;;;5031254;28;20672;-79
2023/07/28 04:09:11;;;;;;;14.68;8.48;;;17.80;99.90;;;;;;5028068;28;20724;-79
2023/07/28 04:11:38;;;;;;;11.73;8.63;;;17.80;99.90;;;;;;5031784;28;20198;-79
2023/07/28 04:14:06;;;;;;;11.15;7.95;;;17.80;99.90;;;;;;5027970;28;20195;-79
2023/07/28 04:16:55;;;;;;;12.20;7.75;;;17.80;99.90;;;;;;5057201;28;20206;-79
2023/07/28 04:19:22;;;;;;;8.65;6.68;;;17.80;99.90;;;;;;5028823;28;20209;-78
2023/07/28 04:21:49;;;;;;;8.45;6.20;;;17.80;99.90;;;;;;5033960;28;20218;-79
2023/07/28 04:24:17;;;;;;;8.90;6.45;;;17.80;99.90;;;;;;5060002;28;20194;-79
2023/07/28 04:26:49;;;;;;;7.97;6.00;;;17.80;99.90;;;;;;5016901;28;20206;-79
2023/07/28 04:29:17;;;;;;;8.90;5.75;;;17.90;99.90;;;;;;5034123;28;20565;-79
2023/07/28 04:31:44;;;;;;;7.78;5.85;;;17.80;99.90;;;;;;5033706;28;20198;-79
2023/07/28 04:34:16;;;;;;;7.05;5.75;;;17.80;99.90;;;;;;5064261;28;20205;-79
2023/07/28 04:37:06;;;;;;;6.80;6.10;;;17.90;99.90;;;;;;5030836;28;20653;-78
2023/07/28 04:39:48;;;;;;;8.30;5.95;;;17.90;99.90;;;;;;5031077;28;20202;-79
2023/07/28 04:42:16;;;;;;;7.10;5.55;;;17.90;99.90;;;;;;5035368;28;20570;-79
2023/07/28 04:44:47;;;;;;;6.22;5.22;;;17.90;99.90;;;;;;5035206;28;20206;-79
2023/07/28 04:47:15;;;;;;;5.95;4.85;;;17.90;99.90;;;;;;5028670;28;20210;-79
2023/07/28 04:49:45;;;;;;;5.78;4.97;;;17.90;99.90;;;;;;5059056;28;20198;-79
2023/07/28 04:52:32;;;;;;;6.75;5.68;;;17.90;99.90;;;;;;5051803;28;20194;-79
2023/07/28 04:55:22;;;;;;;6.53;4.88;;;18.00;99.90;;;;;;5031468;28;20206;-79
2023/07/28 04:57:50;;;;;;;6.35;5.30;;;18.00;99.90;;;;;;5034328;28;20218;-79
2023/07/28 05:00:18;;;;;;;8.98;5.63;;;18.00;99.90;;;;;;5034190;28;20201;-79
2023/07/28 05:02:46;;;;;;;6.95;5.15;;;18.00;99.90;;;;;;5035138;28;20234;-79
2023/07/28 05:05:15;;;;;;;6.40;5.03;;;18.00;99.90;;;;;;5035986;28;20199;-79
2023/07/28 05:07:43;;;;;;;5.85;5.13;;;18.00;99.90;;;;;;5035275;28;20222;-80
2023/07/28 05:10:18;;;;;;;5.68;4.60;;;18.00;99.90;;;;;;5037781;28;20203;-80
2023/07/28 05:12:45;;;;;;;5.97;5.28;;;18.00;99.90;;;;;;5058750;28;20214;-79
2023/07/28 05:15:15;;;;;;;6.38;4.80;;;18.00;99.90;;;;;;5026680;28;20198;-79
2023/07/28 05:17:43;;;;;;;6.65;4.57;;;18.00;99.90;;;;;;5045831;28;20218;-80
2023/07/28 05:20:46;;;;;;;5.82;4.15;;;18.00;99.90;;;;;;5056515;28;20210;-80
2023/07/28 05:23:15;;;;;;;6.15;5.10;;;18.10;99.90;;;;;;5032012;28;20217;-80
2023/07/28 05:25:43;;;;;;;5.72;4.70;;;18.10;99.90;;;;;;5035585;28;20190;-80
2023/07/28 05:28:13;;;;;;;6.55;4.95;;;18.10;99.90;;;;;;5034728;28;20680;-78
2023/07/28 05:30:54;;;;;;;6.13;4.82;;;18.10;99.90;;;;;;5053898;28;20202;-80
2023/07/28 05:33:57;;;;;;;5.00;4.38;;;18.10;99.90;;;;;;5021412;28;20190;-80
2023/07/28 05:36:26;;;;;;;4.28;3.60;;;18.20;99.90;;;;;;5043205;28;20545;-80
2023/07/28 05:38:58;;;;;;;4.20;3.30;;;18.20;99.90;;;;;;5023915;28;20226;-80
2023/07/28 05:41:33;;;;;;;5.75;3.70;;;18.20;99.90;;;;;;5028270;28;20194;-79
2023/07/28 05:44:01;;;;;;;4.32;3.42;;;18.20;99.90;;;;;;5066333;28;20221;-80
2023/07/28 05:46:28;;;;;;;3.45;3.00;;;18.20;99.90;;;;;;5034152;28;20210;-79
2023/07/28 05:48:56;;;;;;;5.70;3.35;;;18.20;99.90;;;;;;5035392;28;20217;-78
2023/07/28 05:51:24;;;;;;;3.90;3.35;;;18.20;99.90;;;;;;5036411;28;20205;-80
2023/07/28 05:53:53;;;;;;;4.30;3.25;;;18.20;99.90;;;;;;5056669;28;20201;-79
2023/07/28 05:56:27;;;;;;;4.70;4.00;;;18.30;99.90;;;;;;5039916;28;20218;-79
2023/07/28 05:58:55;;;;;;;5.38;3.70;;;18.30;99.90;;;;;;5049861;28;20225;-79
2023/07/28 06:01:22;;;;;;;4.13;3.10;;;18.30;99.90;;;;;;5036025;28;20660;-81
2023/07/28 06:04:08;;;;;;;4.32;3.80;;;18.40;99.90;;;;;;5059837;28;20199;-81
2023/07/28 06:06:42;;;;;;;5.80;5.20;;;18.40;99.90;;;;;;5068400;28;20194;-81
2023/07/28 06:09:23;;;;;;;6.32;5.60;;;18.40;99.90;;;;;;5051554;28;20290;-81
2023/07/28 06:11:51;;;;;;;5.90;5.30;;;18.40;99.90;;;;;;5034127;28;20191;-78
2023/07/28 06:14:18;;;;;;;6.72;5.43;;;18.40;99.90;;;;;;5035817;28;20198;-78
2023/07/28 06:16:46;;;;;;;7.90;5.25;;;18.30;99.90;;;;;;5031039;28;20198;-79
2023/07/28 06:19:13;;;;;;;7.95;6.45;;;18.40;99.90;;;;;;5030539;28;20724;-78
2023/07/28 06:21:42;;;;;;;9.00;5.88;;;18.40;99.90;;;;;;5033765;28;20202;-78
2023/07/28 06:24:10;;;;;;;8.50;5.95;;;18.40;99.90;;;;;;5036595;28;20218;-79
2023/07/28 06:26:38;;;;;;;9.05;5.60;;;18.40;99.90;;;;;;5037064;28;20198;-78
2023/07/28 06:29:06;;;;;;;7.65;6.03;;;18.40;99.90;;;;;;5048513;28;20218;-78
2023/07/28 06:31:34;;;;;;;10.23;6.22;;;18.30;99.90;;;;;;5036747;28;20203;-78
2023/07/28 06:34:01;;;;;;;8.23;6.07;;;18.30;99.90;;;;;;5032067;28;20202;-78
2023/07/28 06:36:29;;;;;;;7.40;6.22;;;18.40;99.90;;;;;;5031969;28;20203;-78
2023/07/28 06:38:56;;;;;;;8.00;6.80;;;18.40;99.90;;;;;;5035341;28;20222;-79
2023/07/28 06:41:24;;;;;;;8.95;6.80;;;18.50;99.90;;;;;;5035532;28;20676;-79
2023/07/28 06:44:00;;;;;;;9.43;7.10;;;18.50;99.90;;;;;;5031693;28;20224;-79
2023/07/28 06:46:28;;;;;;;11.90;7.93;;;18.50;99.90;;;;;;5028513;28;20198;-79
2023/07/28 06:48:56;;;;;;;9.63;7.18;;;18.50;99.90;;;;;;5031683;28;20240;-79
2023/07/28 06:51:23;;;;;;;8.75;6.70;;;18.50;99.90;;;;;;5032853;28;20203;-78
2023/07/28 06:53:50;;;;;;;9.15;7.10;;;18.40;99.90;;;;;;5036148;28;20205;-78
2023/07/28 06:56:18;;;;;;;7.38;6.22;;;18.40;99.90;;;;;;5036783;28;20710;-79
2023/07/28 06:58:46;;;;;;;8.65;6.40;;;18.50;99.90;;;;;;5025280;28;20217;-79
2023/07/28 07:01:15;;;;;;;9.50;7.57;;;18.50;99.90;;;;;;5055239;28;20553;-78
2023/07/28 07:03:42;;;;;;;8.48;7.00;;;18.60;99.90;;;;;;5031137;28;20222;-78
2023/07/28 07:06:10;;;;;;;9.38;7.20;;;18.60;99.90;;;;;;5032494;28;20194;-78
2023/07/28 07:08:38;;;;;;;11.57;8.27;;;18.70;99.90;;;;;;5030964;28;20233;-78
2023/07/28 07:11:06;;;;;;;9.05;7.95;;;18.60;99.90;;;;;;5043504;28;20198;-78
2023/07/28 07:14:02;;;;;;;9.63;7.18;;;18.70;99.90;;;;;;5029771;28;20210;-79
2023/07/28 07:16:31;;;;;;;9.15;7.85;;;18.70;99.90;;;;;;5047554;28;20202;-79
2023/07/28 07:18:58;;;;;;;9.10;7.72;;;18.80;99.90;;;;;;5007152;28;20372;-79
2023/07/28 07:21:39;;;;;;;7.85;6.32;;;18.80;99.90;;;;;;5039861;28;20262;-79
2023/07/28 07:24:07;;;;;;;7.22;6.43;;;18.90;99.90;;;;;;5016848;28;20203;-79
2023/07/28 07:26:42;;;;;;;6.85;5.45;;;18.80;99.90;;;;;;5030559;28;20195;-78
2023/07/28 07:29:10;;;;;;;5.82;5.28;;;18.80;99.90;;;;;;5032285;28;20222;-78
2023/07/28 07:31:39;;;;;;;7.22;5.43;;;18.80;99.90;;;;;;5015363;28;20207;-78
2023/07/28 07:34:06;;;;;;;6.90;6.20;;;18.90;99.90;;;;;;5009239;28;20210;-78
2023/07/28 07:36:34;;;;;;;7.28;6.47;;;18.90;99.90;;;;;;5047807;28;20207;-77
2023/07/28 07:39:01;;;;;;;8.98;7.45;;;18.90;99.90;;;;;;5011015;28;20242;-78
2023/07/28 07:41:30;;;;;;;8.52;7.45;;;19.00;99.90;;;;;;5044931;28;20205;-78
2023/07/28 07:43:58;;;;;;;10.07;7.60;;;18.90;99.90;;;;;;5008858;28;20234;-78
2023/07/28 07:46:25;;;;;;;7.80;7.00;;;18.90;99.90;;;;;;5006893;28;20206;-78
2023/07/28 07:48:54;;;;;;;9.10;6.93;;;19.00;99.90;;;;;;5010723;28;20223;-79
2023/07/28 07:51:21;;;;;;;8.80;6.78;;;19.00;99.90;;;;;;5014624;28;20207;-79
2023/07/28 07:54:03;;;;;;;8.68;6.57;;;19.00;99.90;;;;;;5012146;28;20206;-79
2023/07/28 07:56:31;;;;;;;9.20;7.32;;;19.10;99.90;;;;;;5011495;28;20210;-80
2023/07/28 07:58:58;;;;;;;8.68;7.57;;;19.10;99.90;;;;;;5023700;28;20226;-79
2023/07/28 08:01:26;;;;;;;8.32;7.53;;;19.00;99.90;;;;;;5012431;28;20207;-79
2023/07/28 08:03:54;;;;;;;7.82;7.03;;;19.10;99.90;;;;;;5056645;28;20231;-79
2023/07/28 08:06:22;;;;;;;8.38;7.57;;;19.10;99.90;;;;;;5048967;28;20195;-79
2023/07/28 08:08:51;;;;;;;8.85;7.95;;;19.10;99.90;;;;;;5034633;28;20230;-79
2023/07/28 08:11:19;;;;;;;8.98;7.20;;;19.10;99.90;;;;;;5051739;28;20195;-79
2023/07/28 08:13:48;;;;;;;8.18;7.38;;;19.20;99.90;;;;;;5024829;28;20195;-79
2023/07/28 08:16:15;;;;;;;7.45;6.63;;;19.30;99.90;;;;;;5038418;28;20202;-79
2023/07/28 08:18:43;;;;;;;7.50;6.80;;;19.30;99.90;;;;;;5017644;28;20223;-79
2023/07/28 08:21:11;;;;;;;7.13;6.43;;;19.40;99.90;;;;;;5021496;28;20202;-79
2023/07/28 08:23:39;;;;;;;7.43;6.72;;;19.50;99.90;;;;;;5062406;28;20194;-79
2023/07/28 08:26:06;;;;;;;7.57;6.65;;;19.50;99.90;;;;;;5015211;28;20199;-79
2023/07/28 08:28:34;;;;;;;8.05;7.25;;;19.50;99.90;;;;;;5015119;28;20697;-79
2023/07/28 08:31:01;;;;;;;7.53;6.82;;;19.50;99.90;;;;;;5049012;28;20201;-79
2023/07/28 08:33:28;;;;;;;7.20;6.53;;;19.50;99.90;;;;;;5030573;28;20197;-79
2023/07/28 08:35:56;;;;;;;7.85;7.10;;;19.60;99.90;;;;;;5057921;28;20666;-79
2023/07/28 08:38:25;;;;;;;9.70;7.47;;;19.60;99.90;;;;;;5059416;28;20246;-79
2023/07/28 08:40:52;;;;;;;9.10;8.15;;;19.60;99.90;;;;;;5023507;28;20205;-79
2023/07/28 08:43:19;;;;;;;9.50;7.75;;;19.60;99.90;;;;;;5047256;28;20214;-79
2023/07/28 08:45:47;;;;;;;7.82;7.13;;;19.60;99.90;;;;;;5043629;28;20222;-79
2023/07/28 08:48:15;;;;;;;9.38;7.82;;;19.50;99.90;;;;;;5029335;28;20294;-79
2023/07/28 08:50:42;;;;;;;10.77;9.10;;;19.50;99.90;;;;;;5047878;28;20214;-79
2023/07/28 08:53:10;;;;;;;10.38;9.38;;;19.50;99.90;;;;;;5045058;28;20215;-79
2023/07/28 08:55:38;;;;;;;10.57;9.48;;;19.50;99.90;;;;;;5015591;28;20218;-79
2023/07/28 08:58:16;;;;;;;10.90;9.90;;;19.50;99.90;;;;;;5036149;28;20210;-79
2023/07/28 09:00:44;;;;;;;8.70;7.88;;;19.60;99.90;;;;;;5015155;28;20566;-79
2023/07/28 09:03:12;;;;;;;9.27;8.23;;;19.70;99.90;;;;;;5015479;28;20210;-79
2023/07/28 09:05:40;;;;;;;9.38;8.48;;;19.70;99.90;;;;;;5023051;28;20222;-79
2023/07/28 09:08:08;;;;;;;11.73;9.82;;;19.70;99.90;;;;;;5013358;28;20219;-79
2023/07/28 09:10:44;;;;;;;9.98;8.98;;;19.80;99.90;;;;;;5038011;28;20223;-79
2023/07/28 09:13:13;;;;;;;11.55;10.35;;;19.90;99.90;;;;;;5056029;28;20199;-79
2023/07/28 09:15:41;;;;;;;12.35;11.15;;;19.80;99.90;;;;;;5023673;28;20202;-79
2023/07/28 09:18:10;;;;;;;12.68;11.40;;;19.90;99.90;;;;;;5032779;28;20214;-79
2023/07/28 09:20:38;;;;;;;12.60;11.35;;;20.00;99.90;;;;;;5017606;28;20199;-79
2023/07/28 09:23:07;;;;;;;12.82;11.50;;;20.10;99.90;;;;;;5053435;28;20202;-79
2023/07/28 09:25:36;;;;;;;11.68;10.57;;;20.00;99.90;;;;;;5018116;28;20218;-79
2023/07/28 09:28:18;;;;;;;12.23;11.02;;;20.20;99.90;;;;;;5034437;28;20233;-79
2023/07/28 09:30:48;;;;;;;12.00;10.07;;;20.20;99.90;;;;;;5049322;28;20202;-79
2023/07/28 09:33:46;;;;;;;10.93;9.88;;;20.20;99.90;;;;;;5019945;28;20673;-80
2023/07/28 09:36:15;;;;;;;10.40;9.38;;;20.10;99.90;;;;;;5039940;28;20204;-81
2023/07/28 09:38:43;;;;;;;8.85;7.95;;;20.10;99.90;;;;;;5053970;28;20237;-80
2023/07/28 09:41:12;;;;;;;8.13;7.32;;;20.20;99.90;;;;;;5020807;28;20194;-79
2023/07/28 09:43:42;;;;;;;7.63;6.93;;;20.30;99.90;;;;;;5013333;28;20203;-82
2023/07/28 09:46:11;;;;;;;6.57;5.97;;;20.50;99.90;;;;;;5032232;28;20214;-78
2023/07/28 09:48:39;;;;;;;5.78;4.45;;;20.60;99.90;;;;;;5012136;28;20226;-78
2023/07/28 09:51:12;;;;;;;3.83;3.15;;;20.70;99.90;;;;;;5014250;28;20206;-79
2023/07/28 09:53:47;;;;;;;4.45;3.53;;;20.50;99.90;;;;;;5049952;28;20206;-79
2023/07/28 09:56:16;;;;;;;3.63;3.30;;;20.60;99.90;;;;;;5017922;28;20235;-79
2023/07/28 09:58:50;;;;;;;4.05;3.50;;;20.60;99.90;;;;;;5013555;28;20230;-78
2023/07/28 10:01:18;;;;;;;4.45;3.83;;;20.70;99.90;;;;;;5019928;28;20203;-78
2023/07/28 10:03:46;;;;;;;4.13;3.72;;;20.70;99.90;;;;;;5017105;28;20214;-78
2023/07/28 10:06:15;;;;;;;6.32;4.55;;;20.70;99.90;;;;;;5015802;28;20220;-78
2023/07/28 10:08:43;;;;;;;6.20;5.60;;;20.80;99.90;;;;;;5009998;28;20228;-78
2023/07/28 10:11:12;;;;;;;6.20;5.60;;;20.50;99.90;;;;;;5014167;28;20225;-78
2023/07/28 10:13:45;;;;;;;7.15;5.28;;;20.60;99.90;;;;;;5003824;28;20204;-79
2023/07/28 10:16:14;;;;;;;6.53;5.22;;;20.50;99.90;;;;;;5017773;28;20201;-79
2023/07/28 10:18:42;;;;;;;6.90;5.45;;;20.60;99.90;;;;;;5031958;28;20230;-79
2023/07/28 10:21:13;;;;;;;7.90;6.57;;;20.60;99.90;;;;;;5015663;28;20230;-79
2023/07/28 10:23:40;;;;;;;9.82;8.73;;;20.50;99.90;;;;;;5032841;28;20203;-79
2023/07/28 10:26:08;;;;;;;10.23;8.40;;;20.50;99.90;;;;;;5015046;28;20234;-79
2023/07/28 10:28:38;;;;;;;9.35;8.38;;;20.50;99.90;;;;;;5011964;28;20222;-79
2023/07/28 10:31:07;;;;;;;8.30;7.50;;;20.50;99.90;;;;;;5042935;28;20199;-81
2023/07/28 10:33:37;;;;;;;8.02;7.32;;;20.50;99.90;;;;;;5033218;28;20583;-81
2023/07/28 10:36:13;;;;;;;8.70;7.95;;;20.50;99.90;;;;;;5033974;28;20187;-81
2023/07/28 10:38:43;;;;;;;9.15;8.23;;;20.50;99.90;;;;;;5019411;28;20222;-80
2023/07/28 10:41:14;;;;;;;8.38;7.65;;;20.40;99.90;;;;;;5020234;28;20206;-79
2023/07/28 10:43:46;;;;;;;7.30;6.68;;;20.40;99.90;;;;;;5020803;28;20199;-79
2023/07/28 10:46:16;;;;;;;9.70;8.45;;;20.40;99.90;;;;;;5014546;28;20211;-79
2023/07/28 10:48:46;;;;;;;9.02;8.18;;;20.50;99.90;;;;;;5036330;28;20214;-79
2023/07/28 10:51:38;;;;;;;9.27;8.48;;;20.50;99.90;;;;;;5016567;28;20190;-81
2023/07/28 10:54:15;;;;;;;9.73;8.82;;;20.50;99.90;;;;;;5036565;28;20214;-81
2023/07/28 10:56:43;;;;;;;7.90;7.10;;;20.50;99.90;;;;;;5018608;28;20199;-79
2023/07/28 10:59:10;;;;;;;7.63;6.95;;;20.60;99.90;;;;;;5049888;28;20234;-80
2023/07/28 11:01:40;;;;;;;6.88;6.28;;;20.70;99.90;;;;;;5013187;28;20577;-81
2023/07/28 11:04:10;;;;;;;6.28;5.68;;;20.90;99.90;;;;;;5053083;28;20207;-82
2023/07/28 11:06:40;;;;;;;7.18;6.57;;;21.10;99.90;;;;;;5016877;28;20223;-81
2023/07/28 11:09:08;;;;;;;9.63;8.73;;;21.10;99.90;;;;;;5026261;28;20237;-81
2023/07/28 11:11:36;;;;;;;10.10;9.20;;;21.10;99.90;;;;;;5026426;28;20203;-81
2023/07/28 11:14:04;;;;;;;9.35;8.55;;;21.10;99.90;;;;;;5022574;28;20215;-80
2023/07/28 11:16:32;;;;;;;9.38;8.23;;;20.90;99.90;;;;;;5049476;28;20221;-80
2023/07/28 11:19:01;;;;;;;7.35;6.65;;;20.90;99.90;;;;;;5056376;28;20219;-80
2023/07/28 11:21:30;;;;;;;6.63;6.05;;;21.10;99.90;;;;;;5042961;28;20196;-81
2023/07/28 11:23:57;;;;;;;6.30;5.72;;;21.30;99.90;;;;;;5044045;28;20207;-80
2023/07/28 11:26:25;;;;;;;6.03;5.53;;;21.30;99.90;;;;;;5016551;28;20227;-81
2023/07/28 11:28:54;;;;;;;5.60;5.10;;;21.40;99.90;;;;;;5054171;28;20226;-81
2023/07/28 11:31:26;;;;;;;4.63;4.32;;;21.40;99.90;;;;;;5034649;28;20211;-81
2023/07/28 11:33:54;;;;;;;4.55;4.25;;;21.50;99.90;;;;;;5023786;28;20199;-81
2023/07/28 11:36:25;;;;;;;4.05;3.75;;;21.40;99.90;;;;;;5024503;28;20199;-80
2023/07/28 11:38:55;;;;;;;4.60;4.22;;;21.40;99.90;;;;;;5027185;28;20223;-84
2023/07/28 11:41:23;;;;;;;4.55;4.25;;;21.40;99.90;;;;;;5017608;28;20203;-80
2023/07/28 11:43:51;;;;;;;5.13;4.72;;;21.50;99.90;;;;;;5025933;28;20218;-81
2023/07/28 11:46:37;;;;;;;5.35;4.95;;;21.70;99.90;;;;;;5018757;28;20215;-81
2023/07/28 11:49:09;;;;;;;6.80;6.20;;;21.80;99.90;;;;;;5023643;28;20225;-81
2023/07/28 11:51:43;;;;;;;7.68;7.07;;;21.90;99.90;;;;;;5019308;28;20214;-81
2023/07/28 11:54:15;;;;;;;8.00;7.30;;;21.70;99.90;;;;;;5041606;28;20198;-81
2023/07/28 11:56:44;;;;;;;7.55;6.95;;;21.80;99.90;;;;;;5023762;28;20214;-81
2023/07/28 11:59:12;;;;;;;7.63;7.03;;;21.70;99.90;;;;;;5021849;28;20223;-81
2023/07/28 12:01:53;;;;;;;7.88;7.28;;;21.70;99.90;;;;;;5016353;28;20677;-81
2023/07/28 12:04:21;;;;;;;7.57;6.97;;;21.90;99.90;;;;;;5024052;28;20195;-81
2023/07/28 12:07:07;;;;;;;7.47;6.88;;;22.00;99.90;;;;;;5031162;28;20233;-81
2023/07/28 12:09:50;;;;;;;8.13;7.40;;;22.10;99.90;;;;;;5027472;28;20202;-81
2023/07/28 12:12:18;;;;;;;7.18;6.68;;;21.90;99.90;;;;;;5012593;28;20210;-81
2023/07/28 12:14:46;;;;;;;9.35;6.72;;;21.80;99.90;;;;;;5017295;28;20208;-81
2023/07/28 12:17:14;;;;;;;7.25;6.65;;;21.70;99.90;;;;;;5018082;28;20209;-81
2023/07/28 12:19:43;;;;;;;7.20;6.60;;;21.50;99.90;;;;;;5027692;28;20202;-79
2023/07/28 12:22:18;;;;;;;6.25;5.78;;;21.50;99.90;;;;;;5029889;28;20218;-81
2023/07/28 12:24:47;;;;;;;7.13;6.38;;;21.40;99.90;;;;;;5053650;28;20202;-80
2023/07/28 12:27:15;;;;;;;6.75;6.15;;;21.20;99.90;;;;;;5015941;28;20231;-82
2023/07/28 12:29:43;;;;;;;6.00;5.53;;;21.00;99.90;;;;;;5009503;28;20203;-81
2023/07/28 12:32:11;;;;;;;6.30;5.70;;;20.80;99.90;;;;;;5019390;28;20202;-81
2023/07/28 12:34:40;;;;;;;5.38;4.90;;;20.70;99.90;;;;;;5054453;28;20207;-81
2023/07/28 12:37:07;;;;;;;7.03;6.43;;;20.80;99.90;;;;;;5040969;28;20195;-81
2023/07/28 12:39:39;;;;;;;6.10;5.50;;;21.10;99.90;;;;;;5036185;28;20206;-81
2023/07/28 12:42:09;;;;;;;3.80;3.50;;;21.30;99.90;;;;;;5022845;28;20659;-80
2023/07/28 12:44:36;;;;;;;2.60;2.40;;;21.40;99.90;;;;;;5016061;28;20214;-81
2023/07/28 12:47:06;;;;;;;2.35;2.15;;;21.70;99.90;;;;;;5017786;28;20214;-81
2023/07/28 12:49:40;;;;;;;2.70;2.50;;;22.00;99.90;;;;;;5029943;28;20556;-81
2023/07/28 12:52:09;;;;;;;2.30;1.70;;;22.20;99.90;;;;;;5017919;28;20209;-81
2023/07/28 12:54:36;;;;;;;2.63;2.40;;;22.30;99.90;;;;;;5014784;28;20199;-81
2023/07/28 12:57:06;;;;;;;2.05;1.85;;;22.50;99.90;;;;;;5050180;28;20198;-81